Time;durP1;ratioP1;P1;durP2;ratioP2;P2;SDS_P1;SDS_P2;PMS_P1;PMS_P2;Temp;Humidity;BMP_temperature;BMP_pressure;BME280_temperature;BME280_humidity;BME280_pressure;Samples;Min_cycle;Max_cycle;Signal;HPM_P1;HPM_P2
2024/01/09 00:02:01;;;;;;;5.70;2.95;;;;;;;;;;5113477;28;20028;-76
2024/01/09 00:04:26;;;;;;;4.63;2.55;;;;;;;;;;5104479;28;20027;-76
2024/01/09 00:06:51;;;;;;;6.07;3.57;;;;;;;;;;5108647;28;20051;-76
2024/01/09 00:09:16;;;;;;;8.48;3.50;;;;;;;;;;5106030;28;20701;-76
2024/01/09 00:11:41;;;;;;;8.83;4.90;;;;;;;;;;5107417;28;20412;-76
2024/01/09 00:14:06;;;;;;;8.00;3.53;;;;;;;;;;5106115;28;20265;-76
2024/01/09 00:16:32;;;;;;;5.25;2.95;;;;;;;;;;5105839;28;21587;-76
2024/01/09 00:18:57;;;;;;;5.37;3.07;;;;;;;;;;5106416;28;20186;-76
2024/01/09 00:21:22;;;;;;;6.22;2.65;;;;;;;;;;5106870;28;20262;-76
2024/01/09 00:23:48;;;;;;;6.38;3.50;;;;;;;;;;5111452;28;20336;-76
2024/01/09 00:26:13;;;;;;;6.22;3.28;;;;;;;;;;5106237;28;20364;-76
2024/01/09 00:28:38;;;;;;;5.38;3.35;;;;;;;;;;5104442;28;20020;-76
2024/01/09 00:31:03;;;;;;;6.32;3.55;;;;;;;;;;5108163;28;20019;-76
2024/01/09 00:33:28;;;;;;;6.23;3.60;;;;;;;;;;5109131;28;20020;-76
2024/01/09 00:35:54;;;;;;;5.87;3.20;;;;;;;;;;5103411;28;20315;-76
2024/01/09 00:38:19;;;;;;;7.30;3.78;;;;;;;;;;5111830;28;20277;-76
2024/01/09 00:40:45;;;;;;;6.30;3.50;;;;;;;;;;5111382;28;20485;-76
2024/01/09 00:43:10;;;;;;;5.65;3.65;;;;;;;;;;5105189;28;20439;-76
2024/01/09 00:45:35;;;;;;;6.13;3.45;;;;;;;;;;5105937;28;20374;-76
2024/01/09 00:48:01;;;;;;;5.53;3.50;;;;;;;;;;5103969;28;20048;-76
2024/01/09 00:50:26;;;;;;;6.73;3.27;;;;;;;;;;5110665;28;20505;-76
2024/01/09 00:52:51;;;;;;;6.80;3.17;;;;;;;;;;5107869;28;20337;-76
2024/01/09 00:55:16;;;;;;;5.85;3.70;;;;;;;;;;5104663;28;20043;-76
2024/01/09 00:57:41;;;;;;;5.63;3.08;;;;;;;;;;5105766;28;20024;-76
2024/01/09 01:00:08;;;;;;;6.03;3.55;;;;;;;;;;5109858;28;20106;-76
2024/01/09 01:02:33;;;;;;;5.72;3.53;;;;;;;;;;5111767;28;20087;-76
2024/01/09 01:04:58;;;;;;;10.37;3.00;;;;;;;;;;5102519;28;20477;-76
2024/01/09 01:07:23;;;;;;;8.45;3.63;;;;;;;;;;5109417;28;20270;-76
2024/01/09 01:09:48;;;;;;;6.15;3.35;;;;;;;;;;5105339;28;20020;-76
2024/01/09 01:12:14;;;;;;;6.70;3.23;;;;;;;;;;5103521;28;20020;-76
2024/01/09 01:14:39;;;;;;;5.85;3.05;;;;;;;;;;5106433;28;20326;-76
2024/01/09 01:17:04;;;;;;;5.93;3.08;;;;;;;;;;5100969;28;20383;-76
2024/01/09 01:19:29;;;;;;;7.32;3.67;;;;;;;;;;5111002;28;20039;-76
2024/01/09 01:21:55;;;;;;;6.45;3.50;;;;;;;;;;5111477;28;20026;-76
2024/01/09 01:24:20;;;;;;;7.65;3.33;;;;;;;;;;5103869;28;20016;-76
2024/01/09 01:26:45;;;;;;;4.38;3.03;;;;;;;;;;5108772;28;20069;-76
2024/01/09 01:29:10;;;;;;;6.65;3.63;;;;;;;;;;5105351;28;20099;-76
2024/01/09 01:31:36;;;;;;;7.47;3.80;;;;;;;;;;5103760;28;20022;-76
2024/01/09 01:34:01;;;;;;;6.13;3.30;;;;;;;;;;5104715;28;20023;-76
2024/01/09 01:36:26;;;;;;;7.10;3.70;;;;;;;;;;5110812;28;20031;-76
2024/01/09 01:38:51;;;;;;;5.70;2.95;;;;;;;;;;5110848;28;20284;-76
2024/01/09 01:41:16;;;;;;;7.10;3.67;;;;;;;;;;5111095;28;20015;-76
2024/01/09 01:43:42;;;;;;;6.43;3.63;;;;;;;;;;5103323;28;20474;-76
2024/01/09 01:46:07;;;;;;;5.45;2.88;;;;;;;;;;5108297;28;20020;-76
2024/01/09 01:48:33;;;;;;;5.60;2.95;;;;;;;;;;5101083;28;20020;-76
2024/01/09 01:50:58;;;;;;;6.07;3.10;;;;;;;;;;5109884;28;20120;-75
2024/01/09 01:53:24;;;;;;;5.82;3.38;;;;;;;;;;5101770;28;20475;-76
2024/01/09 01:55:50;;;;;;;5.50;3.30;;;;;;;;;;5107763;28;20082;-76
2024/01/09 01:58:15;;;;;;;5.72;3.13;;;;;;;;;;5104105;28;20024;-75
2024/01/09 02:00:41;;;;;;;5.88;3.03;;;;;;;;;;5106563;28;20063;-76
2024/01/09 02:03:06;;;;;;;4.90;3.17;;;;;;;;;;5103672;28;20045;-76
2024/01/09 02:05:33;;;;;;;6.55;3.58;;;;;;;;;;5101292;28;20020;-76
2024/01/09 02:07:59;;;;;;;4.90;2.78;;;;;;;;;;5106126;28;20024;-75
2024/01/09 02:10:24;;;;;;;7.20;3.35;;;;;;;;;;5102281;28;20129;-76
2024/01/09 02:12:49;;;;;;;6.85;3.38;;;;;;;;;;5103054;28;20107;-76
2024/01/09 02:15:15;;;;;;;6.65;3.15;;;;;;;;;;5104001;28;20128;-76
2024/01/09 02:17:40;;;;;;;8.65;3.85;;;;;;;;;;5101708;28;20109;-75
2024/01/09 02:20:07;;;;;;;5.15;2.83;;;;;;;;;;5103468;28;20034;-75
2024/01/09 02:22:32;;;;;;;6.25;3.42;;;;;;;;;;5104892;28;20463;-75
2024/01/09 02:24:57;;;;;;;5.10;2.92;;;;;;;;;;5108585;28;20026;-76
2024/01/09 02:27:30;;;;;;;7.97;3.42;;;;;;;;;;5100868;28;20094;-75
2024/01/09 02:29:55;;;;;;;7.00;3.80;;;;;;;;;;5100859;28;20142;-75
2024/01/09 02:32:21;;;;;;;5.93;3.22;;;;;;;;;;5105378;28;20526;-75
2024/01/09 02:34:46;;;;;;;5.32;2.88;;;;;;;;;;5106596;28;20020;-76
2024/01/09 02:37:12;;;;;;;7.47;3.47;;;;;;;;;;5105952;28;20019;-76
2024/01/09 02:39:37;;;;;;;5.72;3.22;;;;;;;;;;5107562;28;20019;-76
2024/01/09 02:42:02;;;;;;;5.82;3.15;;;;;;;;;;5106913;28;20023;-76
2024/01/09 02:44:28;;;;;;;6.63;3.20;;;;;;;;;;5109841;28;20117;-76
2024/01/09 02:46:53;;;;;;;5.25;3.00;;;;;;;;;;5101774;28;20027;-76
2024/01/09 02:49:18;;;;;;;5.63;3.38;;;;;;;;;;5106281;28;20016;-76
2024/01/09 02:51:43;;;;;;;5.63;2.88;;;;;;;;;;5100342;28;20024;-75
2024/01/09 02:54:08;;;;;;;5.95;3.50;;;;;;;;;;5110333;28;20059;-76
2024/01/09 02:56:36;;;;;;;8.55;4.00;;;;;;;;;;5106388;28;20047;-75
2024/01/09 02:59:02;;;;;;;7.88;3.00;;;;;;;;;;5109532;28;20025;-75
2024/01/09 03:01:27;;;;;;;6.07;3.13;;;;;;;;;;5106667;28;20028;-76
2024/01/09 03:03:52;;;;;;;6.63;3.50;;;;;;;;;;5099371;28;20587;-76
2024/01/09 03:06:17;;;;;;;7.82;3.65;;;;;;;;;;5106141;28;20264;-76
2024/01/09 03:08:43;;;;;;;7.82;3.75;;;;;;;;;;5098876;28;20032;-76
2024/01/09 03:11:08;;;;;;;6.13;3.38;;;;;;;;;;5106401;28;20363;-76
2024/01/09 03:13:33;;;;;;;6.17;3.83;;;;;;;;;;5102678;28;20027;-75
2024/01/09 03:15:58;;;;;;;6.40;3.00;;;;;;;;;;5108469;28;20346;-76
2024/01/09 03:18:23;;;;;;;6.30;2.90;;;;;;;;;;5101416;28;20020;-75
2024/01/09 03:20:49;;;;;;;7.50;3.70;;;;;;;;;;5100962;28;20028;-75
2024/01/09 03:23:14;;;;;;;4.28;2.97;;;;;;;;;;5107554;28;20323;-75
2024/01/09 03:25:39;;;;;;;7.37;3.50;;;;;;;;;;5105332;28;20061;-75
2024/01/09 03:28:04;;;;;;;5.80;3.63;;;;;;;;;;5104650;28;20265;-76
2024/01/09 03:30:29;;;;;;;5.68;3.08;;;;;;;;;;5102109;28;20065;-75
2024/01/09 03:32:55;;;;;;;7.57;3.58;;;;;;;;;;5102120;28;20482;-75
2024/01/09 03:35:20;;;;;;;8.10;3.22;;;;;;;;;;5108003;28;20375;-75
2024/01/09 03:37:45;;;;;;;5.70;3.75;;;;;;;;;;5103751;28;20382;-76
2024/01/09 03:40:11;;;;;;;4.83;2.90;;;;;;;;;;5108366;28;20047;-75
2024/01/09 03:42:36;;;;;;;5.72;3.15;;;;;;;;;;5107284;28;20273;-75
2024/01/09 03:45:01;;;;;;;6.85;3.40;;;;;;;;;;5106930;28;20041;-75
2024/01/09 03:47:26;;;;;;;6.25;3.40;;;;;;;;;;5102031;28;20034;-76
2024/01/09 03:49:52;;;;;;;5.82;3.47;;;;;;;;;;5099604;28;20076;-76
2024/01/09 03:52:17;;;;;;;6.70;3.40;;;;;;;;;;5099911;28;20434;-76
2024/01/09 03:54:42;;;;;;;5.57;3.07;;;;;;;;;;5099731;28;20047;-76
2024/01/09 03:57:08;;;;;;;6.43;3.88;;;;;;;;;;5102520;28;20330;-76
2024/01/09 03:59:33;;;;;;;6.72;3.95;;;;;;;;;;5099361;28;20024;-76
2024/01/09 04:01:58;;;;;;;4.50;2.40;;;;;;;;;;5102417;28;20024;-75
2024/01/09 04:04:24;;;;;;;5.60;3.65;;;;;;;;;;5107301;28;20020;-75
2024/01/09 04:06:49;;;;;;;7.75;3.88;;;;;;;;;;5107012;28;20043;-75
2024/01/09 04:09:14;;;;;;;6.07;3.38;;;;;;;;;;5102766;28;20050;-76
2024/01/09 04:11:46;;;;;;;6.30;3.40;;;;;;;;;;5106926;28;20020;-76
2024/01/09 04:14:12;;;;;;;7.35;3.35;;;;;;;;;;5104124;28;20020;-76
2024/01/09 04:16:37;;;;;;;7.30;3.45;;;;;;;;;;5103346;28;20087;-75
2024/01/09 04:19:03;;;;;;;5.07;3.28;;;;;;;;;;5100661;28;20460;-75
2024/01/09 04:21:28;;;;;;;6.07;3.22;;;;;;;;;;5106183;28;20589;-75
2024/01/09 04:23:53;;;;;;;7.68;3.22;;;;;;;;;;5107476;28;20024;-76
2024/01/09 04:26:18;;;;;;;6.03;3.17;;;;;;;;;;5105517;28;20035;-76
2024/01/09 04:28:43;;;;;;;5.60;3.20;;;;;;;;;;5106364;28;20421;-75
2024/01/09 04:31:08;;;;;;;7.30;3.67;;;;;;;;;;5105213;28;20273;-75
2024/01/09 04:33:34;;;;;;;5.88;3.33;;;;;;;;;;5105943;28;20666;-76
2024/01/09 04:35:59;;;;;;;8.45;3.58;;;;;;;;;;5106777;28;20120;-75
2024/01/09 04:38:24;;;;;;;5.40;3.42;;;;;;;;;;5104587;28;20042;-76
2024/01/09 04:40:50;;;;;;;5.80;3.30;;;;;;;;;;5112599;28;20030;-76
2024/01/09 04:43:15;;;;;;;6.60;3.05;;;;;;;;;;5106320;28;20274;-75
2024/01/09 04:45:40;;;;;;;8.30;4.05;;;;;;;;;;5111423;28;20027;-75
2024/01/09 04:48:06;;;;;;;5.65;3.38;;;;;;;;;;5101552;28;20027;-75
2024/01/09 04:50:31;;;;;;;5.70;3.20;;;;;;;;;;5110227;28;20023;-75
2024/01/09 04:52:56;;;;;;;7.43;3.33;;;;;;;;;;5104422;28;20030;-75
2024/01/09 04:55:21;;;;;;;5.05;3.30;;;;;;;;;;5107660;28;20324;-76
2024/01/09 04:57:47;;;;;;;6.95;3.38;;;;;;;;;;5104455;28;20471;-75
2024/01/09 05:00:12;;;;;;;5.93;3.67;;;;;;;;;;5106312;28;20027;-75
2024/01/09 05:02:38;;;;;;;10.52;3.92;;;;;;;;;;5110492;28;20470;-75
2024/01/09 05:05:03;;;;;;;6.90;3.33;;;;;;;;;;5105104;28;20044;-75
2024/01/09 05:07:29;;;;;;;4.97;3.08;;;;;;;;;;5110779;28;20313;-75
2024/01/09 05:09:54;;;;;;;8.17;3.70;;;;;;;;;;5104470;28;20438;-75
2024/01/09 05:12:20;;;;;;;7.13;3.42;;;;;;;;;;5111115;28;20270;-75
2024/01/09 05:14:45;;;;;;;5.72;2.90;;;;;;;;;;5105260;27;20027;-75
2024/01/09 05:17:10;;;;;;;8.50;3.20;;;;;;;;;;5101759;28;20031;-75
2024/01/09 05:19:36;;;;;;;5.20;3.15;;;;;;;;;;5108321;28;20278;-75
2024/01/09 05:22:01;;;;;;;7.45;3.42;;;;;;;;;;5104793;28;20030;-76
2024/01/09 05:24:27;;;;;;;7.75;3.70;;;;;;;;;;5103085;28;20023;-75
2024/01/09 05:26:52;;;;;;;5.90;3.15;;;;;;;;;;5104730;28;20024;-76
2024/01/09 05:29:17;;;;;;;5.32;3.60;;;;;;;;;;5103069;28;20111;-75
2024/01/09 05:31:43;;;;;;;6.23;3.57;;;;;;;;;;5104157;28;20020;-76
2024/01/09 05:34:08;;;;;;;12.63;3.90;;;;;;;;;;5104551;28;20269;-75
2024/01/09 05:36:33;;;;;;;8.93;4.18;;;;;;;;;;5102970;28;20430;-75
2024/01/09 05:38:59;;;;;;;5.80;3.72;;;;;;;;;;5104319;28;20024;-76
2024/01/09 05:41:24;;;;;;;7.35;3.67;;;;;;;;;;5103486;28;20111;-75
2024/01/09 05:43:49;;;;;;;6.78;3.90;;;;;;;;;;5104328;28;20064;-75
2024/01/09 05:46:14;;;;;;;9.15;3.63;;;;;;;;;;5105677;28;20047;-76
2024/01/09 05:48:40;;;;;;;6.82;3.47;;;;;;;;;;5103223;28;20055;-75
2024/01/09 05:51:06;;;;;;;8.52;3.50;;;;;;;;;;5106531;27;20019;-75
2024/01/09 05:53:31;;;;;;;7.25;4.05;;;;;;;;;;5101103;28;20047;-75
2024/01/09 05:55:56;;;;;;;9.17;4.47;;;;;;;;;;5103326;28;20065;-75
2024/01/09 05:58:21;;;;;;;8.15;3.95;;;;;;;;;;5100066;28;20757;-75
2024/01/09 06:00:46;;;;;;;6.43;3.40;;;;;;;;;;5109613;28;20031;-75
2024/01/09 06:03:11;;;;;;;7.45;3.92;;;;;;;;;;5101105;28;20020;-75
2024/01/09 06:05:37;;;;;;;8.52;4.13;;;;;;;;;;5107999;28;20478;-75
2024/01/09 06:08:02;;;;;;;9.35;3.85;;;;;;;;;;5102085;28;20058;-75
2024/01/09 06:10:27;;;;;;;6.68;3.55;;;;;;;;;;5106498;28;20028;-75
2024/01/09 06:12:52;;;;;;;8.25;4.20;;;;;;;;;;5103277;28;20560;-75
2024/01/09 06:15:17;;;;;;;8.90;4.20;;;;;;;;;;5101191;28;20024;-75
2024/01/09 06:17:43;;;;;;;6.90;4.23;;;;;;;;;;5107169;28;20069;-75
2024/01/09 06:20:08;;;;;;;7.13;4.18;;;;;;;;;;5101931;28;20629;-75
2024/01/09 06:22:33;;;;;;;7.95;4.47;;;;;;;;;;5100383;28;20059;-75
2024/01/09 06:24:58;;;;;;;6.85;3.85;;;;;;;;;;5107468;28;20019;-75
2024/01/09 06:27:24;;;;;;;6.97;4.03;;;;;;;;;;5100606;28;20081;-75
2024/01/09 06:29:49;;;;;;;8.60;4.45;;;;;;;;;;5105367;28;20043;-75
2024/01/09 06:32:14;;;;;;;7.65;4.45;;;;;;;;;;5103591;28;20409;-75
2024/01/09 06:34:39;;;;;;;7.38;3.95;;;;;;;;;;5102238;28;20043;-75
2024/01/09 06:37:04;;;;;;;8.75;4.53;;;;;;;;;;5103438;28;20098;-75
2024/01/09 06:39:29;;;;;;;8.50;3.83;;;;;;;;;;5102388;28;20016;-75
2024/01/09 06:41:55;;;;;;;7.57;3.75;;;;;;;;;;5102460;28;20020;-75
2024/01/09 06:44:20;;;;;;;5.70;3.60;;;;;;;;;;5103045;28;20088;-75
2024/01/09 06:46:45;;;;;;;9.70;4.38;;;;;;;;;;5102482;28;20285;-75
2024/01/09 06:49:10;;;;;;;9.13;4.38;;;;;;;;;;5103757;28;20043;-75
2024/01/09 06:51:35;;;;;;;7.45;3.80;;;;;;;;;;5102579;28;20027;-75
2024/01/09 06:54:01;;;;;;;15.27;4.75;;;;;;;;;;5102517;28;20011;-74
2024/01/09 06:56:26;;;;;;;7.00;4.53;;;;;;;;;;5104012;28;20036;-75
2024/01/09 06:58:51;;;;;;;7.78;4.30;;;;;;;;;;5102339;28;20020;-75
2024/01/09 07:01:16;;;;;;;9.23;3.95;;;;;;;;;;5105872;28;20117;-75
2024/01/09 07:03:42;;;;;;;8.55;4.47;;;;;;;;;;5099530;28;20508;-75
2024/01/09 07:06:07;;;;;;;7.47;4.50;;;;;;;;;;5109014;28;20028;-75
2024/01/09 07:08:32;;;;;;;8.63;4.40;;;;;;;;;;5099151;28;20058;-75
2024/01/09 07:10:58;;;;;;;14.88;4.88;;;;;;;;;;5101223;28;20115;-75
2024/01/09 07:13:23;;;;;;;13.07;6.03;;;;;;;;;;5104639;28;20020;-75
2024/01/09 07:15:49;;;;;;;13.00;5.25;;;;;;;;;;5103321;28;20028;-74
2024/01/09 07:18:14;;;;;;;15.10;5.82;;;;;;;;;;5108712;28;20026;-75
2024/01/09 07:20:39;;;;;;;13.98;6.80;;;;;;;;;;5100553;28;20520;-75
2024/01/09 07:23:05;;;;;;;11.70;5.25;;;;;;;;;;5104567;28;20485;-75
2024/01/09 07:25:30;;;;;;;14.32;5.05;;;;;;;;;;5106846;28;20090;-75
2024/01/09 07:27:55;;;;;;;8.20;4.82;;;;;;;;;;5101527;28;20472;-75
2024/01/09 07:30:20;;;;;;;7.97;4.60;;;;;;;;;;5107693;28;20018;-75
2024/01/09 07:32:45;;;;;;;9.52;5.13;;;;;;;;;;5104751;28;20089;-75
2024/01/09 07:35:11;;;;;;;8.73;5.07;;;;;;;;;;5107287;28;20031;-75
2024/01/09 07:37:36;;;;;;;11.40;5.22;;;;;;;;;;5099424;28;20081;-75
2024/01/09 07:40:03;;;;;;;8.32;4.95;;;;;;;;;;5105431;28;20020;-75
2024/01/09 07:42:28;;;;;;;11.20;4.85;;;;;;;;;;5101837;28;20532;-75
2024/01/09 07:44:54;;;;;;;10.10;4.43;;;;;;;;;;5102647;28;20091;-74
2024/01/09 07:47:19;;;;;;;9.35;4.85;;;;;;;;;;5102762;28;20280;-75
2024/01/09 07:49:44;;;;;;;7.95;4.75;;;;;;;;;;5103713;28;20383;-75
2024/01/09 07:52:10;;;;;;;10.95;4.93;;;;;;;;;;5109666;28;20106;-74
2024/01/09 07:54:35;;;;;;;8.52;4.75;;;;;;;;;;5104296;28;20395;-74
2024/01/09 07:57:00;;;;;;;8.75;4.50;;;;;;;;;;5106533;28;20028;-74
2024/01/09 07:59:26;;;;;;;7.82;4.65;;;;;;;;;;5106711;28;20008;-74
2024/01/09 08:01:55;;;;;;;9.43;4.75;;;;;;;;;;5108764;28;20065;-74
2024/01/09 08:04:23;;;;;;;12.07;5.88;;;;;;;;;;5108508;28;20015;-74
2024/01/09 08:06:50;;;;;;;7.30;4.82;;;;;;;;;;5111808;28;20015;-74
2024/01/09 08:09:17;;;;;;;11.30;5.78;;;;;;;;;;5106938;28;20024;-74
2024/01/09 08:11:42;;;;;;;8.57;5.03;;;;;;;;;;5108411;28;20043;-74
2024/01/09 08:14:07;;;;;;;11.93;5.45;;;;;;;;;;5107335;28;20039;-74
2024/01/09 08:16:32;;;;;;;10.27;5.43;;;;;;;;;;5111374;28;20448;-74
2024/01/09 08:18:58;;;;;;;10.13;5.65;;;;;;;;;;5105087;28;20265;-74
2024/01/09 08:21:23;;;;;;;14.25;5.38;;;;;;;;;;5110789;28;20060;-74
2024/01/09 08:23:49;;;;;;;10.63;5.43;;;;;;;;;;5108238;28;20518;-75
2024/01/09 08:26:14;;;;;;;10.80;5.10;;;;;;;;;;5108547;28;20020;-74
2024/01/09 08:28:39;;;;;;;8.68;5.45;;;;;;;;;;5106082;28;20427;-74
2024/01/09 08:31:04;;;;;;;9.55;5.45;;;;;;;;;;5107938;28;20024;-74
2024/01/09 08:33:34;;;;;;;9.10;5.07;;;;;;;;;;5107057;28;20518;-76
2024/01/09 08:35:59;;;;;;;11.00;5.13;;;;;;;;;;5111426;28;20467;-74
2024/01/09 08:38:24;;;;;;;8.90;5.25;;;;;;;;;;5105617;28;20016;-75
2024/01/09 08:40:53;;;;;;;8.98;5.15;;;;;;;;;;5112467;28;20015;-74
2024/01/09 08:43:18;;;;;;;9.02;4.75;;;;;;;;;;5109010;28;20058;-74
2024/01/09 08:45:45;;;;;;;8.38;4.78;;;;;;;;;;5112954;28;20020;-74
2024/01/09 08:48:11;;;;;;;10.38;5.32;;;;;;;;;;5103847;28;20414;-74
2024/01/09 08:50:36;;;;;;;10.27;4.90;;;;;;;;;;5111371;28;20020;-74
2024/01/09 08:53:01;;;;;;;9.45;5.10;;;;;;;;;;5106026;28;20031;-74
2024/01/09 08:55:26;;;;;;;8.25;5.15;;;;;;;;;;5108451;28;20128;-74
2024/01/09 08:57:51;;;;;;;9.98;4.75;;;;;;;;;;5109308;28;20421;-74
2024/01/09 09:00:17;;;;;;;11.85;5.25;;;;;;;;;;5111895;28;20026;-75
2024/01/09 09:02:42;;;;;;;10.55;5.78;;;;;;;;;;5105370;28;20076;-75
2024/01/09 09:05:07;;;;;;;11.88;5.90;;;;;;;;;;5108010;28;20488;-74
2024/01/09 09:07:33;;;;;;;11.25;5.60;;;;;;;;;;5110110;28;20504;-74
2024/01/09 09:09:58;;;;;;;10.93;5.37;;;;;;;;;;5107408;28;20069;-74
2024/01/09 09:12:23;;;;;;;9.80;5.15;;;;;;;;;;5109697;28;20297;-74
2024/01/09 09:14:48;;;;;;;9.48;5.35;;;;;;;;;;5110844;28;20031;-74
2024/01/09 09:17:15;;;;;;;15.88;5.75;;;;;;;;;;5106480;28;20074;-75
2024/01/09 09:19:41;;;;;;;7.35;4.55;;;;;;;;;;5102810;28;20031;-78
2024/01/09 09:22:06;;;;;;;11.18;6.00;;;;;;;;;;5101712;28;20455;-74
2024/01/09 09:24:33;;;;;;;10.50;5.45;;;;;;;;;;5112436;28;20012;-74
2024/01/09 09:26:58;;;;;;;17.40;6.20;;;;;;;;;;5105281;28;20024;-74
2024/01/09 09:29:23;;;;;;;7.53;4.85;;;;;;;;;;5105612;28;20016;-75
2024/01/09 09:31:48;;;;;;;10.20;5.15;;;;;;;;;;5109680;28;20480;-74
2024/01/09 09:34:14;;;;;;;8.90;5.15;;;;;;;;;;5106684;28;20028;-74
2024/01/09 09:36:39;;;;;;;9.57;4.80;;;;;;;;;;5112814;28;20027;-74
2024/01/09 09:39:04;;;;;;;9.65;5.07;;;;;;;;;;5111715;28;20130;-74
2024/01/09 09:41:31;;;;;;;9.45;5.38;;;;;;;;;;5109732;28;20027;-74
2024/01/09 09:43:56;;;;;;;12.82;5.25;;;;;;;;;;5109249;28;20026;-74
2024/01/09 09:46:26;;;;;;;9.15;5.38;;;;;;;;;;5110156;28;20020;-74
2024/01/09 09:48:53;;;;;;;9.38;5.30;;;;;;;;;;5104421;28;20046;-74
2024/01/09 09:51:19;;;;;;;9.30;5.03;;;;;;;;;;5111728;28;20027;-74
2024/01/09 09:53:44;;;;;;;11.73;5.05;;;;;;;;;;5105066;28;20024;-74
2024/01/09 09:56:12;;;;;;;9.43;5.40;;;;;;;;;;5108314;28;20391;-74
2024/01/09 09:58:37;;;;;;;9.65;5.57;;;;;;;;;;5103587;28;20016;-74
2024/01/09 10:01:03;;;;;;;9.18;5.72;;;;;;;;;;5112802;28;20431;-74
2024/01/09 10:03:31;;;;;;;9.85;5.07;;;;;;;;;;5106283;28;20382;-74
2024/01/09 10:05:57;;;;;;;10.70;5.20;;;;;;;;;;5105327;28;20518;-75
2024/01/09 10:08:23;;;;;;;11.35;5.50;;;;;;;;;;5108025;28;20391;-74
2024/01/09 10:10:48;;;;;;;9.65;5.13;;;;;;;;;;5101022;28;20024;-74
2024/01/09 10:13:14;;;;;;;8.43;5.20;;;;;;;;;;5112638;28;20516;-75
2024/01/09 10:16:12;;;;;;;9.40;5.40;;;;;;;;;;5106783;28;20058;-74
2024/01/09 10:18:37;;;;;;;9.90;5.55;;;;;;;;;;5065380;28;20050;-74
2024/01/09 10:21:05;;;;;;;11.27;5.00;;;;;;;;;;5107762;28;20091;-74
2024/01/09 10:23:30;;;;;;;8.82;4.95;;;;;;;;;;5109313;28;20525;-75
2024/01/09 10:25:55;;;;;;;8.27;4.85;;;;;;;;;;5108749;28;20043;-74
2024/01/09 10:28:21;;;;;;;8.10;4.40;;;;;;;;;;5109814;28;20375;-74
2024/01/09 10:30:47;;;;;;;11.85;4.90;;;;;;;;;;5106157;28;20425;-74
2024/01/09 10:33:13;;;;;;;10.00;5.10;;;;;;;;;;5109111;28;20034;-74
2024/01/09 10:35:38;;;;;;;7.68;4.32;;;;;;;;;;5108470;28;20020;-75
2024/01/09 10:38:04;;;;;;;9.45;5.20;;;;;;;;;;5104040;28;20024;-74
2024/01/09 10:40:29;;;;;;;9.90;5.15;;;;;;;;;;5109372;28;20076;-74
2024/01/09 10:42:54;;;;;;;10.95;5.45;;;;;;;;;;5106049;28;20375;-74
2024/01/09 10:45:23;;;;;;;7.82;4.75;;;;;;;;;;5108809;28;20122;-74
2024/01/09 10:47:52;;;;;;;10.20;4.90;;;;;;;;;;5100209;28;20016;-74
2024/01/09 10:50:19;;;;;;;9.73;4.90;;;;;;;;;;5108361;28;20109;-74
2024/01/09 10:52:44;;;;;;;10.02;5.90;;;;;;;;;;5101735;28;20470;-74
2024/01/09 10:55:09;;;;;;;8.70;5.32;;;;;;;;;;5111139;28;20050;-74
2024/01/09 10:57:35;;;;;;;8.98;5.15;;;;;;;;;;5104522;28;20443;-74
2024/01/09 11:00:00;;;;;;;8.90;4.65;;;;;;;;;;5100009;28;20440;-74
2024/01/09 11:02:26;;;;;;;10.00;5.05;;;;;;;;;;5104906;28;20452;-74
2024/01/09 11:04:52;;;;;;;11.80;4.93;;;;;;;;;;5105065;28;20041;-74
2024/01/09 11:07:17;;;;;;;10.13;5.55;;;;;;;;;;5106444;28;20019;-74
2024/01/09 11:09:46;;;;;;;10.80;5.65;;;;;;;;;;5106669;28;20012;-74
2024/01/09 11:12:17;;;;;;;10.43;5.68;;;;;;;;;;5109276;28;20455;-74
2024/01/09 11:14:44;;;;;;;10.00;4.75;;;;;;;;;;5105767;28;20020;-75
2024/01/09 11:17:11;;;;;;;10.52;5.72;;;;;;;;;;5106725;28;20028;-74
2024/01/09 11:19:36;;;;;;;7.57;4.55;;;;;;;;;;5110761;28;20065;-74
2024/01/09 11:22:14;;;;;;;10.35;4.97;;;;;;;;;;5107157;28;20024;-75
2024/01/09 11:24:39;;;;;;;11.15;5.13;;;;;;;;;;5109662;28;20076;-74
2024/01/09 11:27:11;;;;;;;10.27;5.45;;;;;;;;;;5111367;28;20102;-74
2024/01/09 11:29:53;;;;;;;9.75;4.72;;;;;;;;;;5113642;28;20027;-74
2024/01/09 11:32:19;;;;;;;10.02;5.00;;;;;;;;;;5111809;27;20015;-74
2024/01/09 11:34:45;;;;;;;10.20;5.07;;;;;;;;;;5108998;28;20439;-74
2024/01/09 11:37:14;;;;;;;16.27;5.35;;;;;;;;;;5112456;28;20039;-74
2024/01/09 11:39:40;;;;;;;10.63;4.85;;;;;;;;;;5107218;28;20016;-73
2024/01/09 11:42:05;;;;;;;10.40;4.97;;;;;;;;;;5112200;28;20489;-74
2024/01/09 11:44:30;;;;;;;11.65;5.03;;;;;;;;;;5109400;28;20051;-74
2024/01/09 11:46:56;;;;;;;10.18;4.43;;;;;;;;;;5113077;28;20016;-74
2024/01/09 11:49:21;;;;;;;8.75;5.10;;;;;;;;;;5110432;28;20497;-74
2024/01/09 11:51:46;;;;;;;8.98;5.15;;;;;;;;;;5112879;28;20039;-74
2024/01/09 11:54:12;;;;;;;8.52;4.38;;;;;;;;;;5115663;28;20039;-74
2024/01/09 11:56:38;;;;;;;9.02;4.85;;;;;;;;;;5103802;28;20042;-74
2024/01/09 11:59:03;;;;;;;10.02;4.80;;;;;;;;;;5107590;28;20094;-74
2024/01/09 12:01:28;;;;;;;9.73;4.60;;;;;;;;;;5106055;28;20042;-74
2024/01/09 12:03:54;;;;;;;8.32;4.70;;;;;;;;;;5106711;28;20051;-74
2024/01/09 12:06:28;;;;;;;14.43;5.65;;;;;;;;;;5107462;28;20030;-74
2024/01/09 12:08:54;;;;;;;11.35;5.45;;;;;;;;;;5111700;28;20019;-74
2024/01/09 12:11:19;;;;;;;9.52;3.80;;;;;;;;;;5106708;28;20562;-74
2024/01/09 12:13:44;;;;;;;7.85;4.47;;;;;;;;;;5111535;27;20042;-73
2024/01/09 12:16:19;;;;;;;12.20;4.95;;;;;;;;;;5114958;28;20035;-74
2024/01/09 12:18:52;;;;;;;9.27;5.00;;;;;;;;;;5103582;28;20027;-74
2024/01/09 12:21:18;;;;;;;9.60;4.45;;;;;;;;;;5111313;28;20020;-73
2024/01/09 12:23:43;;;;;;;9.95;5.00;;;;;;;;;;5111878;28;20026;-74
2024/01/09 12:26:09;;;;;;;10.45;4.72;;;;;;;;;;5105952;28;20071;-74
2024/01/09 12:28:34;;;;;;;9.43;4.13;;;;;;;;;;5108641;27;20016;-75
2024/01/09 12:31:01;;;;;;;13.02;4.70;;;;;;;;;;5107149;28;20431;-74
2024/01/09 12:33:28;;;;;;;11.52;4.90;;;;;;;;;;5109735;28;20741;-74
2024/01/09 12:35:53;;;;;;;9.73;4.97;;;;;;;;;;5108531;28;20032;-74
2024/01/09 12:38:18;;;;;;;10.47;4.97;;;;;;;;;;5106266;28;20035;-74
2024/01/09 12:40:44;;;;;;;10.68;4.50;;;;;;;;;;5112834;28;20658;-75
2024/01/09 12:43:10;;;;;;;7.80;4.30;;;;;;;;;;5108627;28;20031;-75
2024/01/09 12:45:37;;;;;;;8.73;4.38;;;;;;;;;;5112264;28;20023;-74
2024/01/09 12:48:05;;;;;;;6.20;4.13;;;;;;;;;;5103244;28;20028;-74
2024/01/09 12:50:30;;;;;;;7.22;4.32;;;;;;;;;;5111697;28;20023;-75
2024/01/09 12:52:57;;;;;;;6.65;4.00;;;;;;;;;;5107421;28;20027;-75
2024/01/09 12:55:22;;;;;;;12.90;4.82;;;;;;;;;;5113711;28;20100;-75
2024/01/09 12:57:47;;;;;;;7.47;4.13;;;;;;;;;;5103071;28;20410;-75
2024/01/09 13:00:13;;;;;;;10.07;4.35;;;;;;;;;;5099040;28;20345;-75
2024/01/09 13:02:38;;;;;;;8.18;4.15;;;;;;;;;;5110380;28;20027;-75
2024/01/09 13:05:04;;;;;;;6.38;3.55;;;;;;;;;;5102033;28;20087;-75
2024/01/09 13:07:29;;;;;;;6.75;3.97;;;;;;;;;;5106306;28;20027;-75
2024/01/09 13:09:55;;;;;;;5.65;3.70;;;;;;;;;;5107579;28;20020;-75
2024/01/09 13:12:20;;;;;;;5.88;3.60;;;;;;;;;;5104524;28;20027;-76
2024/01/09 13:14:45;;;;;;;7.77;4.27;;;;;;;;;;5104594;28;20019;-76
2024/01/09 13:17:11;;;;;;;7.83;3.73;;;;;;;;;;5104345;28;20297;-75
2024/01/09 13:19:36;;;;;;;6.20;4.07;;;;;;;;;;5105834;28;20330;-76
2024/01/09 13:22:01;;;;;;;8.47;3.87;;;;;;;;;;5104627;28;20273;-75
2024/01/09 13:24:26;;;;;;;8.98;4.25;;;;;;;;;;5106502;28;20387;-75
2024/01/09 13:26:51;;;;;;;7.20;4.10;;;;;;;;;;5109413;28;20016;-76
2024/01/09 13:29:19;;;;;;;6.53;3.67;;;;;;;;;;5103959;28;20305;-76
2024/01/09 13:31:44;;;;;;;9.57;3.97;;;;;;;;;;5110343;28;20293;-76
2024/01/09 13:34:09;;;;;;;5.47;3.90;;;;;;;;;;5105296;28;20096;-76
2024/01/09 13:36:34;;;;;;;5.93;4.15;;;;;;;;;;5105093;28;20039;-76
2024/01/09 13:38:59;;;;;;;7.10;4.30;;;;;;;;;;5109914;28;20118;-76
2024/01/09 13:41:25;;;;;;;8.15;4.20;;;;;;;;;;5109997;28;20765;-76
2024/01/09 13:43:50;;;;;;;6.07;3.50;;;;;;;;;;5107546;28;20095;-76
2024/01/09 13:46:16;;;;;;;7.03;4.10;;;;;;;;;;5112104;28;20023;-76
2024/01/09 13:48:42;;;;;;;6.05;3.47;;;;;;;;;;5107474;28;20514;-76
2024/01/09 13:51:07;;;;;;;6.75;3.90;;;;;;;;;;5112420;28;20099;-76
2024/01/09 13:53:32;;;;;;;7.10;4.00;;;;;;;;;;5102443;28;20012;-75
2024/01/09 13:55:57;;;;;;;5.25;3.53;;;;;;;;;;5105927;28;20109;-76
2024/01/09 13:58:23;;;;;;;10.30;4.15;;;;;;;;;;5110616;28;20023;-75
2024/01/09 14:00:49;;;;;;;7.28;4.03;;;;;;;;;;5111614;28;20102;-75
2024/01/09 14:03:14;;;;;;;10.23;5.20;;;;;;;;;;5105503;28;20016;-75
2024/01/09 14:05:40;;;;;;;5.57;3.42;;;;;;;;;;5106233;28;20371;-75
2024/01/09 14:08:05;;;;;;;6.32;3.75;;;;;;;;;;5107507;28;20440;-76
2024/01/09 14:10:30;;;;;;;6.40;3.85;;;;;;;;;;5110799;28;20107;-76
2024/01/09 14:12:56;;;;;;;5.20;3.27;;;;;;;;;;5109753;28;20069;-75
2024/01/09 14:15:22;;;;;;;8.20;3.88;;;;;;;;;;5104273;28;20297;-75
2024/01/09 14:17:47;;;;;;;6.50;3.40;;;;;;;;;;5106583;28;20028;-75
2024/01/09 14:20:12;;;;;;;6.73;3.27;;;;;;;;;;5105763;28;20332;-72
2024/01/09 14:22:37;;;;;;;5.72;3.58;;;;;;;;;;5108690;28;20289;-73
2024/01/09 14:25:04;;;;;;;6.93;4.03;;;;;;;;;;5110554;28;20019;-75
2024/01/09 14:27:29;;;;;;;6.82;3.70;;;;;;;;;;5108434;28;20042;-76
2024/01/09 14:29:55;;;;;;;5.97;3.72;;;;;;;;;;5103288;28;20012;-74
2024/01/09 14:32:20;;;;;;;7.03;3.75;;;;;;;;;;5107905;28;20024;-77